Time;durP1;ratioP1;P1;durP2;ratioP2;P2;SDS_P1;SDS_P2;PMS_P1;PMS_P2;Temp;Humidity;BMP_temperature;BMP_pressure;BME280_temperature;BME280_humidity;BME280_pressure;Samples;Min_cycle;Max_cycle;Signal;HPM_P1;HPM_P2
2021/12/04 00:00:24;;;;;;;;;5.50;4.00;;;;;10.86;100.00;99527.09;5000273;28;46952;-74
2021/12/04 00:02:53;;;;;;;;;1.00;1.00;;;;;10.88;100.00;99526.31;5000063;28;45679;-77
2021/12/04 00:05:21;;;;;;;;;0.25;0.00;;;;;10.89;100.00;99519.41;5000448;28;45366;-74
2021/12/04 00:07:47;;;;;;;;;3.50;1.00;;;;;10.96;100.00;99529.06;5018661;28;45531;-75
2021/12/04 00:10:17;;;;;;;;;0.00;0.00;;;;;11.02;100.00;99515.34;5018017;28;45316;-75
2021/12/04 00:12:43;;;;;;;;;0.00;0.00;;;;;11.03;100.00;99497.28;5018264;28;45725;-75
2021/12/04 00:15:09;;;;;;;;;0.00;0.00;;;;;11.06;100.00;99499.06;5017696;28;45395;-74
2021/12/04 00:17:35;;;;;;;;;0.00;0.00;;;;;11.04;100.00;99506.78;5018287;28;45580;-73
2021/12/04 00:20:03;;;;;;;;;0.00;0.00;;;;;11.07;100.00;99488.72;5017642;28;46323;-77
2021/12/04 00:22:29;;;;;;;;;0.00;0.00;;;;;11.09;100.00;99491.34;5000177;28;45686;-75
2021/12/04 00:24:54;;;;;;;;;0.00;0.00;;;;;11.17;100.00;99483.75;5017885;28;45462;-73
2021/12/04 00:27:20;;;;;;;;;0.00;0.00;;;;;11.20;100.00;99478.63;5018167;28;45602;-74
2021/12/04 00:29:46;;;;;;;;;0.00;0.00;;;;;11.22;100.00;99487.28;5017973;28;45345;-74
2021/12/04 00:32:21;;;;;;;;;0.00;0.00;;;;;11.26;100.00;99481.34;5017734;28;45724;-74
2021/12/04 00:34:53;;;;;;;;;0.00;0.00;;;;;11.28;100.00;99469.31;5018284;28;45301;-74
2021/12/04 00:51:02;;;;;;;;;0.00;0.00;;;;;11.52;100.00;99465.41;5017097;28;45746;-74
2021/12/04 00:53:28;;;;;;;;;0.00;0.00;;;;;11.56;100.00;99459.47;4999449;28;46076;-74
2021/12/04 00:55:54;;;;;;;;;0.00;0.00;;;;;11.58;100.00;99450.84;5016835;28;45466;-73
2021/12/04 00:58:19;;;;;;;;;0.00;0.00;;;;;11.60;100.00;99456.09;5017771;28;45478;-73
2021/12/04 01:00:45;;;;;;;;;0.00;0.00;;;;;11.63;100.00;99455.28;5017531;28;45278;-73
2021/12/04 01:03:10;;;;;;;;;0.00;0.00;;;;;11.66;100.00;99448.41;5016933;28;45317;-74
2021/12/04 01:05:36;;;;;;;;;0.00;0.00;;;;;11.72;100.00;99456.28;5017345;28;45321;-74
2021/12/04 01:08:02;;;;;;;;;0.00;0.00;;;;;11.77;100.00;99465.03;5017290;28;45428;-75
2021/12/04 01:10:27;;;;;;;;;0.00;0.00;;;;;11.67;100.00;99428.53;5017143;28;45661;-74
2021/12/04 01:12:56;;;;;;;;;0.00;0.00;;;;;11.85;100.00;99465.19;5016714;28;45324;-74
2021/12/04 01:15:21;;;;;;;;;0.00;0.00;;;;;11.89;100.00;99466.97;5017287;28;45276;-76
2021/12/04 01:17:47;;;;;;;;;0.00;0.00;;;;;11.90;100.00;99453.16;5017664;28;45490;-74
2021/12/04 01:20:13;;;;;;;;;0.00;0.00;;;;;11.88;100.00;99453.97;5016736;28;45938;-74
2021/12/04 01:22:39;;;;;;;;;0.00;0.00;;;;;11.77;100.00;99443.41;5017186;28;45297;-74
2021/12/04 01:25:05;;;;;;;;;0.00;0.00;;;;;11.91;100.00;99467.03;5016717;28;45304;-75
2021/12/04 01:27:31;;;;;;;;;0.00;0.00;;;;;11.93;100.00;99465.31;5017150;28;45481;-74
2021/12/04 01:29:56;;;;;;;;;0.00;0.00;;;;;11.90;100.00;99452.31;5016606;28;45697;-74
2021/12/04 01:32:22;;;;;;;;;0.00;0.00;;;;;11.87;100.00;99462.59;5016727;28;45466;-74
2021/12/04 01:34:48;;;;;;;;;0.00;0.00;;;;;11.85;100.00;99446.16;4999629;28;45435;-74
2021/12/04 01:37:14;;;;;;;;;0.00;0.00;;;;;11.95;100.00;99458.41;5017476;28;45349;-74
2021/12/04 01:39:39;;;;;;;;;0.00;0.00;;;;;11.93;100.00;99473.97;5016763;28;45879;-74
2021/12/04 01:42:05;;;;;;;;;0.00;0.00;;;;;11.91;100.00;99469.59;5016315;28;45357;-75
2021/12/04 01:44:31;;;;;;;;;0.00;0.00;;;;;11.89;100.00;99463.50;5016377;28;45553;-75
2021/12/04 01:46:57;;;;;;;;;0.00;0.00;;;;;11.82;100.00;99440.94;5016695;28;45261;-74
2021/12/04 01:49:23;;;;;;;;;0.00;0.00;;;;;11.93;100.00;99462.75;5016495;28;46057;-75
2021/12/04 01:51:49;;;;;;;;;0.00;0.00;;;;;11.91;100.00;99459.25;5016389;28;45369;-74
2021/12/04 01:54:15;;;;;;;;;0.00;0.00;;;;;11.91;100.00;99460.09;5016873;28;45214;-77
2021/12/04 01:56:41;;;;;;;;;0.00;0.00;;;;;11.96;100.00;99469.69;5016974;28;45447;-77
2021/12/04 01:59:08;;;;;;;;;0.00;0.00;;;;;11.96;100.00;99480.94;5016375;28;45332;-75
2021/12/04 02:01:34;;;;;;;;;0.00;0.00;;;;;11.93;100.00;99471.38;5020021;28;45438;-75
2021/12/04 02:03:59;;;;;;;;;0.00;0.00;;;;;11.96;100.00;99483.50;5017183;28;45495;-74
2021/12/04 02:06:25;;;;;;;;;0.00;0.00;;;;;11.98;100.00;99488.78;5016552;28;45710;-74
2021/12/04 02:08:51;;;;;;;;;0.00;0.00;;;;;11.95;100.00;99465.34;5015228;28;45554;-75
2021/12/04 02:11:19;;;;;;;;;0.00;0.00;;;;;12.01;100.00;99483.63;5016638;28;45273;-74
2021/12/04 02:13:45;;;;;;;;;0.00;0.00;;;;;11.98;100.00;99479.25;5016838;28;45437;-81
2021/12/04 02:16:19;;;;;;;;;0.00;0.00;;;;;12.01;100.00;99481.91;5016397;28;46061;-80
2021/12/04 02:18:45;;;;;;;;;0.00;0.00;;;;;11.98;100.00;99474.09;5016404;28;46261;-81
2021/12/04 02:21:11;;;;;;;;;0.75;0.00;;;;;12.06;100.00;99480.25;5015881;28;45538;-77
2021/12/04 02:23:36;;;;;;;;;0.00;0.00;;;;;12.08;100.00;99475.13;5016400;28;45491;-78
2021/12/04 02:26:02;;;;;;;;;1.00;0.00;;;;;12.08;100.00;99481.16;5016101;28;45337;-80
2021/12/04 02:28:28;;;;;;;;;0.00;0.00;;;;;12.09;100.00;99479.47;5015930;28;45419;-81
2021/12/04 02:30:54;;;;;;;;;0.00;0.00;;;;;12.15;100.00;99487.34;5015847;28;45370;-80
2021/12/04 02:33:21;;;;;;;;;0.00;0.00;;;;;12.16;100.00;99481.31;5016229;28;45246;-74
2021/12/04 02:35:51;;;;;;;;;1.00;0.00;;;;;12.17;100.00;99490.84;5016508;28;45391;-73
2021/12/04 02:38:18;;;;;;;;;0.00;0.00;;;;;12.13;100.00;99475.19;5016360;28;45572;-78
2021/12/04 02:40:46;;;;;;;;;0.00;0.00;;;;;12.22;100.00;99503.88;5016280;28;45440;-80
2021/12/04 02:43:12;;;;;;;;;0.00;0.00;;;;;12.22;100.00;99489.19;5015682;28;45452;-79
2021/12/04 02:45:38;;;;;;;;;0.00;0.00;;;;;12.16;100.00;99467.44;5016216;28;45182;-79
2021/12/04 02:48:04;;;;;;;;;0.00;0.00;;;;;12.24;100.00;99494.41;5015492;28;45244;-74
2021/12/04 02:50:30;;;;;;;;;0.00;0.00;;;;;12.30;100.00;99491.06;5015787;28;45783;-75
2021/12/04 02:52:55;;;;;;;;;0.00;0.00;;;;;12.30;100.00;99491.06;5015658;28;45330;-74
2021/12/04 02:55:21;;;;;;;;;0.00;0.00;;;;;12.33;100.00;99484.19;5015974;28;45423;-74
2021/12/04 02:57:47;;;;;;;;;0.00;0.00;;;;;12.36;100.00;99485.94;5015866;28;45408;-73
2021/12/04 03:00:19;;;;;;;;;0.00;0.00;;;;;12.36;100.00;99492.00;5015402;28;45352;-75
2021/12/04 03:02:45;;;;;;;;;0.00;0.00;;;;;12.36;100.00;99506.72;5015988;28;45215;-74
2021/12/04 03:05:12;;;;;;;;;0.00;0.00;;;;;12.34;100.00;99487.63;5015764;28;45235;-74
2021/12/04 03:07:38;;;;;;;;;0.00;0.00;;;;;12.25;100.00;99474.53;5015329;28;46168;-74
2021/12/04 03:10:07;;;;;;;;;0.00;0.00;;;;;12.27;100.00;99481.47;5015280;28;45335;-75
2021/12/04 03:12:33;;;;;;;;;0.00;0.00;;;;;12.30;100.00;99489.31;5015493;28;45312;-74
2021/12/04 03:14:59;;;;;;;;;1.00;0.00;;;;;12.30;100.00;99484.13;5015575;28;45512;-74
2021/12/04 03:17:26;;;;;;;;;0.75;0.00;;;;;12.33;100.00;99478.09;5015226;28;45479;-74
2021/12/04 03:19:53;;;;;;;;;1.00;0.00;;;;;12.26;100.00;99471.06;5016816;28;45631;-75
2021/12/04 03:22:22;;;;;;;;;0.00;0.00;;;;;12.34;100.00;99485.94;5018875;28;45349;-74
2021/12/04 03:24:48;;;;;;;;;0.50;0.00;;;;;12.37;100.00;99490.28;5019318;28;45262;-76
2021/12/04 03:27:16;;;;;;;;;0.00;0.00;;;;;12.37;100.00;99496.34;5001284;28;48068;-74
2021/12/04 03:29:47;;;;;;;;;0.00;0.00;;;;;12.37;100.00;99491.16;5018780;28;45484;-74
2021/12/04 03:32:33;;;;;;;;;0.00;0.00;;;;;12.36;100.00;99512.75;5018678;28;45313;-73
2021/12/04 03:42:59;;;;;;;;;0.00;0.00;;;;;12.40;100.00;99469.59;5018560;28;45406;-74
2021/12/04 03:45:25;;;;;;;;;0.00;0.00;;;;;12.41;100.00;99473.94;5018917;28;45483;-74
2021/12/04 03:47:53;;;;;;;;;1.00;0.00;;;;;12.39;100.00;99480.81;5018117;28;45289;-74
2021/12/04 03:50:19;;;;;;;;;0.50;0.00;;;;;12.39;100.00;99470.44;5018624;28;45606;-74
2021/12/04 03:52:45;;;;;;;;;0.00;0.00;;;;;12.45;100.00;99473.09;5018954;28;45416;-74
2021/12/04 03:55:11;;;;;;;;;1.00;0.00;;;;;12.46;100.00;99477.44;5018336;28;45613;-74
2021/12/04 03:57:44;;;;;;;;;1.00;1.00;;;;;12.46;100.00;99476.59;5018239;28;45438;-75
2021/12/04 04:00:14;;;;;;;;;0.75;0.00;;;;;12.47;100.00;99492.19;5018129;28;45323;-75
2021/12/04 04:02:40;;;;;;;;;0.00;0.00;;;;;12.46;100.00;99480.06;5018448;28;45312;-77
2021/12/04 04:05:07;;;;;;;;;0.00;0.00;;;;;12.46;100.00;99480.06;5018358;28;45599;-75
2021/12/04 04:07:32;;;;;;;;;0.00;0.00;;;;;12.49;100.00;99468.84;5017965;28;45328;-75
2021/12/04 04:09:58;;;;;;;;;0.00;0.00;;;;;12.48;100.00;99470.56;5017960;28;45242;-74
2021/12/04 04:12:23;;;;;;;;;0.00;0.00;;;;;12.45;100.00;99467.06;5018413;28;45222;-76
2021/12/04 04:14:49;;;;;;;;;0.00;0.00;;;;;12.54;100.00;99472.38;5018287;28;45543;-75
2021/12/04 04:17:15;;;;;;;;;0.00;0.00;;;;;12.54;100.00;99477.56;5001711;28;45219;-75
2021/12/04 04:19:41;;;;;;;;;0.00;0.00;;;;;12.52;100.00;99467.19;5018736;28;45288;-76
2021/12/04 04:22:06;;;;;;;;;0.00;0.00;;;;;12.53;100.00;99468.91;5018005;28;45301;-74
2021/12/04 04:24:33;;;;;;;;;0.00;0.00;;;;;12.48;100.00;99474.88;5018379;28;45507;-75
2021/12/04 04:27:00;;;;;;;;;0.00;0.00;;;;;12.43;100.00;99453.19;5017632;28;45428;-75
2021/12/04 04:29:26;;;;;;;;;0.00;0.00;;;;;12.42;100.00;99448.84;5017830;28;45305;-75
2021/12/04 04:31:54;;;;;;;;;0.00;0.00;;;;;12.50;100.00;99458.50;5016951;28;45271;-76
2021/12/04 04:34:25;;;;;;;;;0.00;0.00;;;;;12.51;100.00;99470.63;5018319;28;45348;-75
2021/12/04 05:12:15;;;;;;;;;0.00;0.00;;;;;12.46;100.00;99438.50;5016818;28;45706;-74
2021/12/04 05:14:42;;;;;;;;;1.00;0.00;;;;;12.53;100.00;99444.69;5017342;28;45392;-76
2021/12/04 05:17:14;;;;;;;;;0.00;0.00;;;;;12.55;100.00;99445.56;5017212;28;45237;-74
2021/12/04 05:19:52;;;;;;;;;0.00;0.00;;;;;12.57;100.00;99450.78;5016761;28;45725;-74
2021/12/04 05:22:19;;;;;;;;;1.00;0.00;;;;;12.53;100.00;99448.13;5017508;28;45584;-74
2021/12/04 05:24:44;;;;;;;;;0.00;0.00;;;;;12.50;100.00;99445.50;5017394;28;45218;-73
2021/12/04 05:27:10;;;;;;;;;1.00;0.00;;;;;12.47;100.00;99442.88;4999157;28;45605;-73
2021/12/04 05:29:36;;;;;;;;;0.00;0.00;;;;;12.54;100.00;99455.06;5016916;28;45396;-73
2021/12/04 05:32:04;;;;;;;;;0.00;0.00;;;;;12.57;100.00;99459.47;5016708;28;45780;-74
2021/12/04 05:34:31;;;;;;;;;0.00;0.00;;;;;12.58;100.00;99455.13;5017012;28;45352;-72
2021/12/04 05:36:57;;;;;;;;;0.00;0.00;;;;;12.54;100.00;99447.28;4999082;28;45309;-73
2021/12/04 05:39:23;;;;;;;;;0.00;0.00;;;;;12.57;100.00;99435.19;5016825;28;45471;-73
2021/12/04 05:41:48;;;;;;;;;0.00;0.00;;;;;12.53;100.00;99442.94;5016696;28;45246;-73
2021/12/04 05:44:16;;;;;;;;;1.75;0.00;;;;;12.61;100.00;99452.59;5016155;28;45226;-73
2021/12/04 05:46:46;;;;;;;;;0.00;0.00;;;;;12.60;100.00;99456.88;5015890;28;45647;-73
2021/12/04 05:49:23;;;;;;;;;0.00;0.00;;;;;12.59;100.00;99451.69;5016506;28;46138;-73
2021/12/04 05:57:04;;;;;;;;;0.00;0.00;;;;;12.62;100.00;99462.97;5016777;28;45329;-73
2021/12/04 05:59:30;;;;;;;;;0.00;0.00;;;;;12.61;100.00;99466.41;4998259;28;46962;-73
2021/12/04 06:01:56;;;;;;;;;0.00;0.00;;;;;12.61;100.00;99457.78;5016380;28;45346;-73
2021/12/04 06:04:22;;;;;;;;;1.25;0.00;;;;;12.59;100.00;99467.25;5016444;28;45299;-75
2021/12/04 06:06:47;;;;;;;;;0.00;0.00;;;;;12.58;100.00;99453.38;5016656;28;46009;-73
2021/12/04 06:09:13;;;;;;;;;0.00;0.00;;;;;12.58;100.00;99450.78;5016181;28;46106;-72
2021/12/04 06:11:39;;;;;;;;;0.00;0.00;;;;;12.54;100.00;99446.44;5015964;28;45340;-72
2021/12/04 06:14:04;;;;;;;;;0.00;0.00;;;;;12.57;100.00;99450.78;5016734;28;45385;-73
2021/12/04 06:16:30;;;;;;;;;0.00;0.00;;;;;12.53;100.00;99444.69;5016268;28;45397;-73
2021/12/04 06:18:58;;;;;;;;;0.00;0.00;;;;;12.52;100.00;99446.41;5016006;28;45568;-75
2021/12/04 06:24:09;;;;;;;;;0.00;0.00;;;;;12.56;100.00;99443.84;5015964;28;45542;-73
2021/12/04 06:26:36;;;;;;;;;0.00;0.00;;;;;12.57;100.00;99436.09;5016038;28;45524;-74
2021/12/04 06:29:03;;;;;;;;;1.00;0.00;;;;;12.59;100.00;99426.56;5015878;28;45506;-72
2021/12/04 06:31:31;;;;;;;;;0.00;0.00;;;;;12.56;100.00;99428.25;5015670;28;45241;-72
2021/12/04 06:33:56;;;;;;;;;0.00;0.00;;;;;12.56;100.00;99429.16;5015636;28;45253;-74
2021/12/04 06:36:24;;;;;;;;;0.00;0.00;;;;;12.53;100.00;99419.56;4998493;28;45305;-74
2021/12/04 06:38:50;;;;;;;;;0.00;0.00;;;;;12.56;100.00;99428.25;5015862;28;45490;-73
2021/12/04 06:41:16;;;;;;;;;1.50;0.00;;;;;12.56;100.00;99418.78;5016103;28;45421;-73
2021/12/04 06:43:47;;;;;;;;;0.25;0.00;;;;;12.60;100.00;99417.06;5015691;28;45332;-73
2021/12/04 06:46:14;;;;;;;;;1.75;0.00;;;;;12.58;100.00;99418.78;5016178;28;45411;-74
2021/12/04 06:48:44;;;;;;;;;0.00;0.00;;;;;12.57;100.00;99423.09;5015212;28;45516;-72
2021/12/04 06:51:31;;;;;;;;;0.25;0.00;;;;;12.58;100.00;99426.56;5015782;28;45750;-72
2021/12/04 06:54:03;;;;;;;;;0.00;0.00;;;;;12.57;100.00;99422.22;5016121;28;45240;-73
2021/12/04 06:56:37;;;;;;;;;0.00;0.00;;;;;12.55;100.00;99419.63;5019527;28;45190;-72
2021/12/04 06:59:11;;;;;;;;;1.00;0.00;;;;;12.59;100.00;99407.53;5001327;28;45351;-73
2021/12/04 07:01:37;;;;;;;;;0.00;0.00;;;;;12.58;100.00;99411.84;5018736;28;45649;-72
2021/12/04 07:04:03;;;;;;;;;0.00;0.00;;;;;12.57;100.00;99411.84;5019164;28;45291;-73
2021/12/04 07:06:29;;;;;;;;;0.00;0.00;;;;;12.54;100.00;99421.31;5019034;28;45416;-76
2021/12/04 07:08:57;;;;;;;;;2.00;0.00;;;;;12.52;100.00;99425.66;5019044;28;46413;-75
2021/12/04 07:11:23;;;;;;;;;0.00;0.00;;;;;12.45;100.00;99423.78;5018994;28;45509;-74
2021/12/04 07:13:49;;;;;;;;;1.25;0.00;;;;;12.49;100.00;99427.28;5001143;28;45405;-75
2021/12/04 07:16:17;;;;;;;;;0.50;0.00;;;;;12.44;100.00;99413.41;5019145;28;45312;-75
2021/12/04 07:18:43;;;;;;;;;0.00;0.00;;;;;12.44;100.00;99416.00;5018651;28;45547;-77
2021/12/04 07:21:10;;;;;;;;;0.00;0.00;;;;;12.35;100.00;99390.75;5018795;28;45161;-74
2021/12/04 07:23:38;;;;;;;;;0.00;0.00;;;;;12.45;100.00;99413.41;5018820;28;45233;-75
2021/12/04 07:26:05;;;;;;;;;0.00;0.00;;;;;12.44;100.00;99409.06;5019123;28;45525;-76
2021/12/04 07:28:31;;;;;;;;;0.00;0.00;;;;;12.44;100.00;99390.03;5018593;28;46202;-75
2021/12/04 07:30:57;;;;;;;;;0.25;0.00;;;;;12.41;100.00;99400.38;5018804;28;45775;-74
2021/12/04 07:33:23;;;;;;;;;0.00;0.00;;;;;12.34;100.00;99397.69;5018778;28;45247;-75
2021/12/04 07:35:50;;;;;;;;;0.25;0.25;;;;;12.39;100.00;99410.72;5018948;28;45159;-75
2021/12/04 07:38:16;;;;;;;;;0.25;0.25;;;;;12.43;100.00;99399.53;5018655;28;46135;-75
2021/12/04 07:40:43;;;;;;;;;0.50;0.00;;;;;12.41;100.00;99396.06;5018189;28;45526;-75
2021/12/04 07:43:10;;;;;;;;;2.75;1.00;;;;;12.43;100.00;99402.13;5018594;28;45342;-75
2021/12/04 07:45:35;;;;;;;;;0.00;0.00;;;;;12.46;100.00;99409.09;5000827;28;45366;-76
2021/12/04 07:48:02;;;;;;;;;0.00;0.00;;;;;12.42;100.00;99402.97;5019525;28;46228;-75
2021/12/04 07:50:29;;;;;;;;;1.00;0.00;;;;;12.38;100.00;99411.59;5018210;28;45713;-74
2021/12/04 07:52:55;;;;;;;;;0.00;0.00;;;;;12.39;100.00;99397.75;5018434;28;45321;-75
2021/12/04 07:55:22;;;;;;;;;0.00;0.00;;;;;12.41;100.00;99408.16;5018880;28;45493;-76
2021/12/04 07:57:48;;;;;;;;;0.00;0.00;;;;;12.44;100.00;99408.19;5018182;28;46075;-75
2021/12/04 08:00:16;;;;;;;;;0.00;0.00;;;;;12.41;100.00;99400.38;5018160;28;45705;-75
2021/12/04 08:02:42;;;;;;;;;0.25;0.25;;;;;12.36;100.00;99401.16;5000294;28;45431;-74
2021/12/04 08:05:09;;;;;;;;;0.00;0.00;;;;;12.34;100.00;99405.47;5018023;28;45284;-74
2021/12/04 08:07:35;;;;;;;;;0.75;0.75;;;;;12.39;100.00;99416.78;5016999;28;45307;-76
2021/12/04 08:10:02;;;;;;;;;1.00;0.00;;;;;12.36;100.00;99410.69;5018002;28;45585;-74
2021/12/04 08:12:27;;;;;;;;;0.00;0.00;;;;;12.33;100.00;99421.91;5017849;28;45293;-74
2021/12/04 08:14:54;;;;;;;;;0.50;0.50;;;;;12.38;100.00;99430.59;5016944;28;45475;-77
2021/12/04 08:17:21;;;;;;;;;0.00;0.00;;;;;12.37;100.00;99434.06;5018151;28;45393;-74
2021/12/04 08:19:46;;;;;;;;;0.25;0.25;;;;;12.36;100.00;99427.09;5017751;28;45347;-79
2021/12/04 08:22:12;;;;;;;;;0.00;0.00;;;;;12.31;100.00;99436.56;5017996;28;45285;-75
2021/12/04 08:24:38;;;;;;;;;0.00;0.00;;;;;12.27;100.00;99442.53;5017731;28;45565;-78
2021/12/04 08:27:03;;;;;;;;;0.00;0.00;;;;;12.31;100.00;99456.47;5017303;28;46570;-76
2021/12/04 08:29:30;;;;;;;;;0.00;0.00;;;;;12.31;100.00;99443.50;5017306;28;45351;-75
2021/12/04 08:31:56;;;;;;;;;1.25;0.00;;;;;12.28;100.00;99440.84;5017769;28;45370;-74
2021/12/04 08:34:23;;;;;;;;;0.00;0.00;;;;;12.30;100.00;99444.34;5018141;28;45487;-79
2021/12/04 08:36:51;;;;;;;;;1.00;0.00;;;;;12.32;100.00;99450.41;5017378;28;45637;-78
2021/12/04 08:39:17;;;;;;;;;1.50;1.50;;;;;12.35;100.00;99448.75;5017622;28;45705;-78
2021/12/04 08:41:43;;;;;;;;;0.00;0.00;;;;;12.31;100.00;99456.47;5017185;28;45456;-78
2021/12/04 08:44:09;;;;;;;;;0.00;0.00;;;;;12.33;100.00;99459.94;5017634;28;45638;-73
2021/12/04 08:46:37;;;;;;;;;0.00;0.00;;;;;12.32;100.00;99461.66;5016635;28;45443;-73
2021/12/04 08:49:04;;;;;;;;;0.00;0.00;;;;;12.30;100.00;99475.47;5017095;28;45499;-73
2021/12/04 08:51:30;;;;;;;;;0.00;0.00;;;;;12.33;100.00;99476.41;5017353;28;45497;-73
2021/12/04 08:53:56;;;;;;;;;0.00;0.00;;;;;12.31;100.00;99490.22;5018576;28;45474;-72
2021/12/04 08:56:22;;;;;;;;;0.00;0.00;;;;;12.18;100.00;99466.66;5017372;28;45338;-73
2021/12/04 08:58:48;;;;;;;;;0.00;0.00;;;;;12.17;100.00;99477.88;5017163;28;45411;-77
2021/12/04 09:01:26;;;;;;;;;0.00;0.00;;;;;12.30;100.00;99498.84;5017281;28;45222;-77
2021/12/04 09:03:58;;;;;;;;;0.00;0.00;;;;;12.27;100.00;99491.84;5000380;28;45555;-72
2021/12/04 09:06:27;;;;;;;;;3.00;0.00;;;;;12.22;100.00;99488.31;5016691;28;46096;-73
2021/12/04 09:08:53;;;;;;;;;0.75;0.00;;;;;12.26;100.00;99510.00;5017236;28;45705;-77
2021/12/04 09:11:27;;;;;;;;;0.25;0.00;;;;;12.22;100.00;99514.28;5017446;28;45474;-75
2021/12/04 09:13:54;;;;;;;;;0.00;0.00;;;;;12.21;100.00;99508.19;5017757;28;45478;-80
2021/12/04 09:16:19;;;;;;;;;0.00;0.00;;;;;12.19;100.00;99504.72;5017280;28;45481;-75
2021/12/04 09:18:45;;;;;;;;;0.00;0.00;;;;;12.19;100.00;99512.50;5016066;28;45292;-81
2021/12/04 09:21:11;;;;;;;;;0.00;0.00;;;;;12.20;100.00;99527.19;5016851;28;45437;-82
2021/12/04 09:23:41;;;;;;;;;0.00;0.00;;;;;12.21;100.00;99530.69;5016780;28;45294;-82
2021/12/04 09:26:12;;;;;;;;;0.00;0.00;;;;;12.23;100.00;99549.75;5016689;28;45451;-81
2021/12/04 09:29:10;;;;;;;;;0.00;0.00;;;;;12.17;100.00;99555.72;5016106;28;45383;-81
2021/12/04 09:31:35;;;;;;;;;2.25;0.00;;;;;12.18;100.00;99553.97;5016507;28;45233;-76
2021/12/04 09:34:23;;;;;;;;;1.00;0.00;;;;;12.16;100.00;99556.56;5016678;28;45266;-81
2021/12/04 10:01:20;;;;;;;;;0.00;0.00;;;;;11.88;100.00;99612.19;5015976;28;45399;-80
2021/12/04 10:20:33;;;;;;;;;0.00;0.00;;;;;11.77;100.00;99643.06;5015828;28;45934;-77
2021/12/04 10:33:50;;;;;;;;;0.00;0.00;;;;;11.70;100.00;99633.44;5015231;28;45392;-75
2021/12/04 10:36:44;;;;;;;;;0.25;0.00;;;;;11.76;100.00;99633.56;5015769;28;45362;-73
2021/12/04 10:39:11;;;;;;;;;1.25;0.00;;;;;11.76;100.00;99634.44;4998449;28;45349;-75
2021/12/04 10:41:43;;;;;;;;;2.00;0.50;;;;;11.73;100.00;99626.59;5014857;28;45983;-73
2021/12/04 10:44:15;;;;;;;;;1.00;1.00;;;;;11.76;100.00;99637.03;4997210;28;45263;-73
2021/12/04 10:46:57;;;;;;;;;0.00;0.00;;;;;11.70;100.00;99649.88;4997255;28;45453;-76
2021/12/04 10:55:48;;;;;;;;;0.00;0.00;;;;;11.67;100.00;99642.03;5015394;28;45241;-79
2021/12/04 11:07:16;;;;;;;;;2.50;1.00;;;;;11.61;100.00;99641.88;5015298;28;45264;-78
2021/12/04 11:42:18;;;;;;;;;1.00;1.00;;;;;10.83;100.00;99717.81;5017798;28;45312;-79
2021/12/04 11:44:53;;;;;;;;;1.00;0.00;;;;;10.77;100.00;99709.84;5018158;28;45539;-82
2021/12/04 11:47:19;;;;;;;;;0.00;0.00;;;;;10.78;100.00;99727.16;5019204;28;46421;-79
2021/12/04 11:49:45;;;;;;;;;1.50;1.50;;;;;10.73;100.00;99721.00;5018431;28;45445;-82
2021/12/04 11:52:16;;;;;;;;;3.50;1.00;;;;;10.78;100.00;99729.72;5018424;28;45574;-81
2021/12/04 11:54:49;;;;;;;;;2.50;1.00;;;;;10.75;100.00;99740.00;5017888;28;45426;-82
2021/12/04 11:57:37;;;;;;;;;3.25;2.00;;;;;10.71;100.00;99729.53;5018018;28;45336;-77
2021/12/04 12:00:24;;;;;;;;;5.50;4.00;;;;;10.76;100.00;99743.47;5018018;28;45730;-74
2021/12/04 12:02:52;;;;;;;;;2.25;1.25;;;;;10.69;100.00;99729.50;5017676;28;45419;-77
2021/12/04 12:05:21;;;;;;;;;4.25;3.25;;;;;10.67;100.00;99746.69;5018464;28;45336;-77
2021/12/04 12:07:54;;;;;;;;;1.50;1.50;;;;;10.63;100.00;99739.69;5017594;28;46156;-75
2021/12/04 12:10:21;;;;;;;;;4.50;2.50;;;;;10.67;100.00;99770.00;4999605;28;45841;-80
2021/12/04 12:12:48;;;;;;;;;1.50;1.50;;;;;10.72;100.00;99752.00;5017650;28;45371;-81
2021/12/04 12:15:20;;;;;;;;;1.00;1.00;;;;;10.76;100.00;99757.28;5018106;28;45555;-78
2021/12/04 12:17:46;;;;;;;;;4.00;2.00;;;;;10.83;100.00;99755.75;5017224;28;46020;-75
2021/12/04 12:20:19;;;;;;;;;1.75;1.75;;;;;10.91;100.00;99763.72;5017557;28;45553;-74
2021/12/04 12:22:55;;;;;;;;;3.00;3.00;;;;;10.92;100.00;99776.69;5017261;28;45392;-78
2021/12/04 12:33:59;;;;;;;;;2.25;1.00;;;;;10.93;100.00;99788.81;5017161;28;45320;-74
2021/12/04 12:36:29;;;;;;;;;2.00;2.00;;;;;11.04;100.00;99811.53;5018149;28;45443;-75
2021/12/04 12:38:56;;;;;;;;;2.00;2.00;;;;;11.07;100.00;99816.81;5017522;28;45418;-74
2021/12/04 12:41:40;;;;;;;;;4.00;3.00;;;;;11.04;100.00;99821.91;4999599;28;45373;-74
2021/12/04 12:44:13;;;;;;;;;3.25;2.25;;;;;10.96;100.00;99829.47;5018011;28;45404;-79
2021/12/04 12:47:02;;;;;;;;;2.25;1.50;;;;;10.92;100.00;99845.75;5017622;28;45348;-78
2021/12/04 12:49:48;;;;;;;;;4.00;3.75;;;;;10.86;100.00;99836.09;5016883;28;46101;-77
2021/12/04 12:52:20;;;;;;;;;4.00;2.00;;;;;10.85;100.00;99842.13;5016226;28;45869;-75
2021/12/04 12:55:08;;;;;;;;;1.75;1.75;;;;;10.83;100.00;99836.00;5016893;28;45352;-77
2021/12/04 12:57:41;;;;;;;;;3.50;3.50;;;;;10.82;100.00;99839.44;4999953;28;45290;-74
2021/12/04 13:14:18;;;;;;;;;3.50;2.75;;;;;10.83;100.00;99854.13;5016958;28;45931;-77
2021/12/04 13:16:48;;;;;;;;;2.50;2.00;;;;;10.82;100.00;99852.38;5017006;28;45403;-81
2021/12/04 13:19:16;;;;;;;;;1.00;1.00;;;;;10.83;100.00;99861.91;5017903;28;45332;-81
2021/12/04 13:21:45;;;;;;;;;2.25;1.75;;;;;10.79;100.00;99845.41;5018844;28;46177;-81
2021/12/04 13:24:13;;;;;;;;;4.75;3.50;;;;;10.93;100.00;99855.28;5021872;28;45768;-75
2021/12/04 13:26:43;;;;;;;;;7.75;3.00;;;;;11.03;100.00;99869.34;5023976;28;45300;-74
2021/12/04 13:29:11;;;;;;;;;4.50;1.75;;;;;11.08;100.00;99865.19;5017194;28;45463;-74
2021/12/04 13:31:38;;;;;;;;;2.75;2.75;;;;;11.07;100.00;99859.13;4998421;28;47261;-79
2021/12/04 13:34:13;;;;;;;;;3.75;3.25;;;;;11.10;100.00;99869.56;5016707;28;45927;-77
2021/12/04 13:36:42;;;;;;;;;3.00;2.00;;;;;10.97;100.00;99867.47;5016335;28;45384;-76
2021/12/04 13:39:11;;;;;;;;;4.25;2.00;;;;;10.89;100.00;99859.50;5016717;28;45383;-75
2021/12/04 13:41:41;;;;;;;;;2.25;2.00;;;;;10.83;100.00;99865.41;5016006;28;46046;-74
2021/12/04 13:44:09;;;;;;;;;1.50;1.25;;;;;10.70;98.79;99868.47;5016283;28;45898;-73
2021/12/04 13:46:51;;;;;;;;;2.50;0.75;;;;;10.70;97.28;99873.63;5016119;28;45290;-73
2021/12/04 13:49:21;;;;;;;;;1.50;0.25;;;;;10.68;96.37;99873.59;5016418;28;45562;-74
2021/12/04 13:51:55;;;;;;;;;3.75;0.75;;;;;10.66;94.01;99871.78;5015768;28;45478;-74
2021/12/04 13:54:24;;;;;;;;;3.75;1.00;;;;;10.62;95.52;99868.22;5016101;28;45640;-80
2021/12/04 13:56:49;;;;;;;;;2.00;0.75;;;;;10.59;96.05;99865.53;5016331;28;45360;-78
2021/12/04 13:59:22;;;;;;;;;3.00;1.50;;;;;10.64;95.15;99866.56;5017189;28;45482;-80
2021/12/04 14:01:47;;;;;;;;;3.00;1.00;;;;;10.66;94.63;99858.84;5015928;28;45631;-81
2021/12/04 14:04:17;;;;;;;;;4.00;0.00;;;;;10.71;91.75;99852.09;5015038;28;45278;-81
2021/12/04 14:06:50;;;;;;;;;4.00;2.25;;;;;10.78;96.15;99837.63;5016088;28;45403;-80
2021/12/04 14:09:16;;;;;;;;;2.00;2.00;;;;;10.85;98.31;99836.94;5016718;28;45561;-80
2021/12/04 14:11:42;;;;;;;;;2.25;1.75;;;;;10.95;92.34;99854.50;5015578;28;46077;-80
2021/12/04 14:14:17;;;;;;;;;3.00;0.00;;;;;10.97;92.86;99855.41;4998248;28;45861;-82
2021/12/04 14:16:45;;;;;;;;;2.50;2.50;;;;;10.95;94.25;99857.06;5015922;28;45392;-75
2021/12/04 14:19:21;;;;;;;;;3.75;1.00;;;;;10.98;93.53;99869.22;4998368;28;45287;-75
2021/12/04 14:21:53;;;;;;;;;4.50;2.00;;;;;10.93;95.29;99869.09;4998375;28;46224;-74
2021/12/04 14:24:45;;;;;;;;;4.00;3.00;;;;;10.87;93.54;99866.34;5015988;28;45336;-74
2021/12/04 14:27:18;;;;;;;;;3.00;2.75;;;;;10.87;95.02;99865.44;5015910;28;45462;-74
2021/12/04 14:29:47;;;;;;;;;3.00;3.00;;;;;10.83;91.00;99875.75;5015868;28;45491;-74
2021/12/04 14:32:16;;;;;;;;;2.75;2.75;;;;;10.84;87.17;99897.31;5015451;28;46223;-74
2021/12/04 14:34:42;;;;;;;;;3.00;2.00;;;;;10.74;87.45;99901.38;5015308;28;45206;-77
2021/12/04 14:37:14;;;;;;;;;1.75;1.00;;;;;10.73;85.94;99891.84;5015703;28;45266;-74
2021/12/04 14:39:43;;;;;;;;;5.50;2.00;;;;;10.73;89.56;99893.53;5015743;28;45418;-74